createdAt,value
2018-10-19T00:01:43.598Z,58.33
2018-10-19T00:04:13.518Z,54.17
2018-10-19T00:06:43.503Z,54.97
2018-10-19T00:09:13.589Z,56.17
2018-10-19T00:11:43.615Z,52.67
2018-10-19T00:14:13.618Z,52.67
2018-10-19T00:16:43.633Z,56.07
2018-10-19T00:19:13.613Z,52.73
2018-10-19T00:21:43.648Z,53.73
2018-10-19T00:24:13.655Z,55.93
2018-10-19T00:26:43.725Z,54.23
2018-10-19T00:29:13.797Z,58.20
2018-10-19T00:31:43.841Z,53.90
2018-10-19T00:34:13.905Z,50.30
2018-10-19T00:36:43.971Z,48.40
2018-10-19T00:39:14.452Z,53.17
2018-10-19T00:41:44.400Z,50.97
2018-10-19T00:44:14.527Z,50.87
2018-10-19T00:46:44.641Z,46.77
2018-10-19T00:49:14.604Z,53.00
2018-10-19T00:51:44.652Z,51.63
2018-10-19T00:54:14.692Z,49.30
2018-10-19T00:56:44.595Z,46.37
2018-10-19T00:59:14.744Z,47.93
2018-10-19T01:01:44.719Z,50.43
2018-10-19T01:04:14.756Z,47.67
2018-10-19T01:06:44.759Z,48.30
2018-10-19T01:09:14.816Z,46.93
2018-10-19T01:11:44.785Z,44.80
2018-10-19T01:14:14.838Z,46.40
2018-10-19T01:16:44.846Z,47.07
2018-10-19T01:19:14.848Z,54.93
2018-10-19T01:21:44.812Z,47.90
2018-10-19T01:24:14.861Z,54.23
2018-10-19T01:26:44.833Z,47.90
2018-10-19T01:29:15.018Z,51.00
2018-10-19T01:31:45.039Z,50.47
2018-10-19T01:34:15.141Z,52.33
2018-10-19T01:36:46.100Z,52.30
2018-10-19T01:39:16.259Z,54.90
2018-10-19T01:41:46.215Z,56.03
2018-10-19T01:44:16.293Z,53.90
2018-10-19T01:46:49.421Z,53.50
2018-10-19T01:49:21.001Z,55.43
2018-10-19T01:51:50.956Z,53.33
2018-10-19T01:54:21.026Z,65.10
2018-10-19T01:56:51.178Z,59.73
2018-10-19T01:59:21.198Z,56.03
2018-10-19T02:01:51.144Z,54.10
2018-10-19T02:04:21.178Z,54.60
2018-10-19T02:06:51.212Z,57.00
2018-10-19T02:09:21.239Z,55.97
2018-10-19T02:11:51.214Z,51.70
2018-10-19T02:14:21.245Z,58.40
2018-10-19T02:16:51.326Z,58.57
2018-10-19T02:19:21.385Z,53.53
2018-10-19T02:21:51.480Z,56.27
2018-10-19T02:24:21.386Z,57.53
2018-10-19T02:26:51.414Z,53.57
2018-10-19T02:29:21.424Z,55.87
2018-10-19T02:31:51.457Z,53.20
2018-10-19T02:34:21.453Z,58.00
2018-10-19T02:36:51.544Z,52.60
2018-10-19T02:39:21.542Z,52.73
2018-10-19T02:41:51.522Z,57.27
2018-10-19T02:44:21.530Z,51.80
2018-10-19T02:46:51.584Z,50.10
2018-10-19T02:49:21.521Z,52.23
2018-10-19T02:51:51.588Z,51.70
2018-10-19T02:54:21.539Z,52.20
2018-10-19T02:56:51.698Z,54.50
2018-10-19T02:59:21.435Z,53.17
2018-10-19T03:01:51.476Z,54.07
2018-10-19T03:04:21.498Z,49.63
2018-10-19T03:06:51.503Z,51.57
2018-10-19T03:09:21.587Z,48.77
2018-10-19T03:11:51.661Z,53.93
2018-10-19T03:14:21.826Z,51.83
2018-10-19T03:16:51.880Z,53.87
2018-10-19T03:19:21.933Z,48.83
2018-10-19T03:21:51.964Z,51.57
2018-10-19T03:24:21.973Z,53.70
2018-10-19T03:26:52.024Z,52.97
2018-10-19T03:29:22.040Z,52.00
2018-10-19T03:31:51.941Z,52.97
2018-10-19T03:34:22.066Z,52.30
2018-10-19T03:36:52.063Z,53.77
2018-10-19T03:39:22.080Z,50.40
2018-10-19T03:41:52.087Z,51.53
2018-10-19T03:44:22.111Z,53.47
2018-10-19T03:46:52.164Z,50.27
2018-10-19T03:49:22.192Z,59.50
2018-10-19T03:51:52.239Z,51.90
2018-10-19T03:54:22.266Z,54.13
2018-10-19T03:56:52.349Z,54.07
2018-10-19T03:59:22.340Z,54.63
2018-10-19T04:01:52.290Z,54.67
2018-10-19T04:04:22.315Z,51.93
2018-10-19T04:06:52.401Z,53.90
2018-10-19T04:09:22.387Z,50.50
2018-10-19T04:11:52.461Z,53.73
2018-10-19T04:14:22.562Z,56.77
2018-10-19T04:16:52.549Z,50.30
2018-10-19T04:19:22.516Z,49.97
2018-10-19T04:21:52.698Z,53.57
2018-10-19T04:24:22.677Z,49.80
2018-10-19T04:26:52.613Z,54.83
2018-10-19T04:29:22.675Z,51.63
2018-10-19T04:31:52.747Z,50.27
2018-10-19T04:34:22.824Z,54.97
2018-10-19T04:36:57.212Z,55.97
2018-10-19T04:39:27.157Z,55.70
2018-10-19T04:41:57.325Z,57.17
2018-10-19T04:44:27.695Z,56.53
2018-10-19T04:46:58.076Z,61.73
2018-10-19T04:49:28.430Z,63.17
2018-10-19T04:51:58.757Z,53.97
2018-10-19T04:54:28.760Z,51.30
2018-10-19T04:56:58.801Z,55.60
2018-10-19T04:59:28.799Z,56.30
2018-10-19T05:01:58.762Z,51.53
2018-10-19T05:04:39.954Z,53.67
2018-10-19T05:07:10.073Z,53.70
2018-10-19T05:09:40.114Z,52.33
2018-10-19T05:12:10.179Z,53.53
2018-10-19T05:14:40.320Z,57.57
2018-10-19T05:17:10.325Z,55.40
2018-10-19T05:19:40.307Z,61.17
2018-10-19T05:22:11.613Z,55.80
2018-10-19T05:24:45.887Z,59.33
2018-10-19T05:27:27.267Z,57.63
2018-10-19T05:29:57.284Z,57.37
2018-10-19T05:32:27.341Z,56.93
2018-10-19T05:34:57.527Z,55.13
2018-10-19T05:37:27.692Z,56.80
2018-10-19T05:39:58.750Z,56.43
2018-10-19T05:42:28.894Z,55.83
2018-10-19T05:44:58.900Z,60.90
2018-10-19T05:47:28.915Z,58.40
2018-10-19T05:49:59.006Z,57.90
2018-10-19T05:52:29.328Z,61.47
2018-10-19T05:55:04.811Z,59.77
2018-10-19T05:57:35.385Z,60.00
2018-10-19T06:00:06.714Z,63.40
2018-10-19T06:02:36.872Z,63.97
2018-10-19T06:05:07.905Z,64.57
2018-10-19T06:07:37.944Z,57.50
2018-10-19T06:10:08.925Z,60.43
2018-10-19T06:12:38.999Z,60.70
2018-10-19T06:15:09.659Z,60.20
2018-10-19T06:17:39.699Z,61.03
2018-10-19T06:20:09.880Z,55.33
2018-10-19T06:22:39.833Z,58.33
2018-10-19T06:25:09.952Z,52.03
2018-10-19T06:27:40.019Z,48.37
2018-10-19T06:30:10.076Z,51.47
2018-10-19T06:32:40.137Z,44.70
2018-10-19T06:35:10.280Z,50.53
2018-10-19T06:37:40.343Z,52.67
2018-10-19T06:40:10.383Z,52.03
2018-10-19T06:42:40.366Z,56.67
2018-10-19T06:45:10.378Z,61.73
2018-10-19T06:47:40.350Z,51.23
2018-10-19T06:50:11.735Z,52.60
2018-10-19T06:52:42.183Z,53.63
2018-10-19T06:55:16.255Z,50.93
2018-10-19T06:57:46.579Z,49.20
2018-10-19T07:00:17.337Z,46.47
2018-10-19T07:02:47.478Z,50.23
2018-10-19T07:05:17.540Z,44.80
2018-10-19T07:07:47.641Z,48.67
2018-10-19T07:10:17.593Z,44.20
2018-10-19T07:12:47.674Z,44.57
2018-10-19T07:15:17.734Z,44.47
2018-10-19T07:17:47.879Z,45.00
2018-10-19T07:20:17.966Z,45.23
2018-10-19T07:22:48.026Z,47.80
2018-10-19T07:25:18.018Z,44.40
2018-10-19T07:27:48.015Z,38.20
2018-10-19T07:30:18.066Z,40.00
2018-10-19T07:32:48.195Z,43.93
2018-10-19T07:35:18.319Z,41.77
2018-10-19T07:37:48.402Z,39.57
2018-10-19T07:40:18.587Z,34.73
2018-10-19T07:42:48.669Z,36.17
2018-10-19T07:45:18.718Z,35.73
2018-10-19T07:47:49.804Z,35.50
2018-10-19T07:50:19.817Z,33.53
2018-10-19T07:52:49.986Z,31.70
2018-10-19T07:55:20.131Z,31.73
2018-10-19T07:57:50.158Z,34.40
2018-10-19T08:00:20.274Z,32.63
2018-10-19T08:02:50.300Z,33.43
2018-10-19T08:05:20.456Z,32.30
2018-10-19T08:07:50.606Z,33.50
2018-10-19T08:10:20.723Z,33.83
2018-10-19T08:12:50.929Z,31.33
2018-10-19T08:15:21.090Z,30.87
2018-10-19T08:17:51.220Z,29.80
2018-10-19T08:20:21.304Z,35.77
2018-10-19T08:22:51.313Z,28.00
2018-10-19T08:25:21.730Z,27.53
2018-10-19T08:27:52.948Z,29.53
2018-10-19T08:30:28.142Z,27.77
2018-10-19T08:32:58.226Z,28.33
2018-10-19T08:35:28.273Z,27.53
2018-10-19T08:37:58.481Z,28.63
2018-10-19T08:40:28.721Z,27.67
2018-10-19T08:42:58.878Z,25.13
2018-10-19T08:45:28.952Z,28.23
2018-10-19T08:47:59.074Z,28.10
2018-10-19T08:50:31.190Z,25.47
2018-10-19T08:53:01.201Z,27.73
2018-10-19T08:55:31.299Z,25.80
2018-10-19T08:58:01.555Z,25.67
2018-10-19T09:00:31.518Z,26.77
2018-10-19T09:03:01.595Z,28.40
2018-10-19T09:05:31.853Z,27.87
2018-10-19T09:08:01.926Z,28.00
2018-10-19T09:10:32.272Z,26.30
2018-10-19T09:13:02.413Z,28.43
2018-10-19T09:15:32.486Z,30.73
2018-10-19T09:18:02.520Z,29.50
2018-10-19T09:20:32.542Z,31.60
2018-10-19T09:23:02.689Z,32.20
2018-10-19T09:25:32.815Z,37.23
2018-10-19T09:28:02.819Z,32.57
2018-10-19T09:30:32.965Z,33.80
2018-10-19T09:33:03.096Z,36.07
2018-10-19T09:35:33.223Z,36.97
2018-10-19T09:38:03.480Z,38.00
2018-10-19T09:40:33.601Z,38.27
2018-10-19T09:43:03.897Z,36.17
2018-10-19T09:45:34.003Z,41.13
2018-10-19T09:48:23.241Z,36.27
2018-10-19T09:53:55.577Z,36.43
2018-10-19T09:56:25.698Z,36.37
2018-10-19T09:58:55.836Z,36.07
2018-10-19T10:01:29.672Z,37.80
2018-10-19T10:03:59.770Z,37.13
2018-10-19T10:06:30.209Z,36.07
2018-10-19T10:09:00.404Z,35.00
2018-10-19T10:11:30.472Z,37.67
2018-10-19T10:14:00.749Z,36.00
2018-10-19T10:16:34.123Z,38.17
2018-10-19T10:19:04.229Z,33.97
2018-10-19T10:21:40.169Z,33.80
2018-10-19T10:24:11.463Z,33.30
2018-10-19T10:26:41.557Z,32.87
2018-10-19T10:29:11.660Z,34.07
2018-10-19T10:31:42.410Z,35.67
2018-10-19T10:34:12.584Z,34.57
2018-10-19T10:36:42.615Z,34.17
2018-10-19T10:39:13.972Z,33.00
2018-10-19T10:41:43.860Z,35.83
2018-10-19T10:44:23.159Z,35.40
2018-10-19T10:46:53.418Z,35.70
2018-10-19T10:49:23.395Z,35.00
2018-10-19T10:51:53.527Z,38.40
2018-10-19T10:54:23.647Z,37.10
2018-10-19T10:56:53.727Z,35.07
2018-10-19T10:59:23.744Z,33.80
2018-10-19T11:01:53.772Z,33.03
2018-10-19T11:04:24.053Z,36.57
2018-10-19T11:06:54.220Z,35.90
2018-10-19T11:09:24.287Z,34.70
2018-10-19T11:11:54.347Z,35.70
2018-10-19T11:14:25.628Z,34.47
2018-10-19T11:16:55.643Z,33.03
2018-10-19T11:19:25.776Z,32.37
2018-10-19T11:21:55.699Z,30.03
2018-10-19T11:24:25.916Z,29.30
2018-10-19T11:27:00.579Z,33.90
2018-10-19T11:29:30.547Z,30.33
2018-10-19T11:32:00.605Z,29.67
2018-10-19T11:34:30.738Z,33.40
2018-10-19T11:37:03.631Z,31.07
2018-10-19T11:39:33.661Z,30.87
2018-10-19T11:42:03.633Z,32.87
2018-10-19T11:44:33.618Z,34.70
2018-10-19T11:47:03.537Z,30.83
2018-10-19T11:49:33.622Z,33.60
2018-10-19T11:52:03.684Z,34.57
2018-10-19T11:54:33.706Z,33.43
2018-10-19T11:57:03.773Z,31.60
2018-10-19T11:59:33.814Z,32.43
2018-10-19T12:02:03.971Z,32.80
2018-10-19T12:04:33.970Z,31.50
2018-10-19T12:07:04.076Z,37.67
2018-10-19T12:09:34.123Z,32.53
2018-10-19T12:12:04.664Z,35.63
2018-10-19T12:14:34.696Z,31.93
2018-10-19T12:17:04.792Z,31.90
2018-10-19T12:19:34.767Z,34.27
2018-10-19T12:22:04.738Z,30.00
2018-10-19T12:24:34.744Z,30.53
2018-10-19T12:27:04.755Z,32.03
2018-10-19T12:29:41.045Z,28.67
2018-10-19T12:32:11.250Z,28.13
2018-10-19T12:34:41.282Z,29.60
2018-10-19T12:37:12.045Z,31.00
2018-10-19T12:39:41.997Z,31.33
2018-10-19T12:42:22.249Z,33.53
2018-10-19T12:44:52.352Z,30.73
2018-10-19T12:47:35.800Z,30.67
2018-10-19T12:50:06.176Z,34.53
2018-10-19T12:52:38.181Z,36.27
2018-10-19T12:55:09.523Z,34.37
2018-10-19T12:57:39.687Z,31.53
2018-10-19T13:00:09.778Z,32.03
2018-10-19T13:02:39.817Z,31.23
2018-10-19T13:05:15.008Z,33.47
2018-10-19T13:07:45.061Z,32.53
2018-10-19T13:10:15.102Z,30.10
2018-10-19T13:12:45.184Z,33.53
2018-10-19T13:15:15.319Z,31.33
2018-10-19T13:17:45.481Z,31.37
2018-10-19T13:20:15.591Z,30.83
2018-10-19T13:22:45.832Z,29.17
2018-10-19T13:25:15.859Z,30.03
2018-10-19T13:27:45.879Z,30.27
2018-10-19T13:30:16.052Z,29.73
2018-10-19T13:32:46.199Z,28.33
2018-10-19T13:35:16.157Z,28.87
2018-10-19T13:37:46.239Z,29.73
2018-10-19T13:40:16.279Z,29.43
2018-10-19T13:42:46.290Z,29.70
2018-10-19T13:45:16.344Z,30.30
2018-10-19T13:47:46.263Z,31.10
2018-10-19T13:50:16.271Z,32.40
2018-10-19T13:52:46.407Z,31.17
2018-10-19T13:55:16.422Z,34.07
2018-10-19T13:57:46.607Z,34.03
2018-10-19T14:00:16.716Z,29.10
2018-10-19T14:02:46.693Z,31.97
2018-10-19T14:05:16.878Z,27.57
2018-10-19T14:07:46.825Z,34.77
2018-10-19T14:10:16.810Z,29.77
2018-10-19T14:12:52.639Z,30.93
2018-10-19T14:15:22.636Z,31.20
2018-10-19T14:17:53.704Z,31.30
2018-10-19T14:20:33.970Z,29.97
2018-10-19T14:23:04.022Z,33.13
2018-10-19T14:25:34.013Z,31.60
2018-10-19T14:31:09.904Z,29.00
2018-10-19T14:33:40.076Z,30.60
2018-10-19T14:36:09.987Z,32.27
2018-10-19T14:47:33.507Z,30.03
2018-10-19T14:50:03.637Z,28.57
2018-10-19T14:52:33.702Z,30.27
2018-10-19T14:55:03.977Z,30.20
2018-10-19T14:57:34.035Z,27.63
2018-10-19T15:00:15.279Z,31.53
2018-10-19T15:02:45.510Z,27.80
2018-10-19T15:05:21.268Z,29.40
2018-10-19T15:07:51.255Z,29.67
2018-10-19T15:10:22.619Z,28.37
2018-10-19T15:12:52.433Z,30.43
2018-10-19T15:15:23.403Z,34.40
2018-10-19T15:17:53.524Z,31.87
2018-10-19T15:20:23.614Z,33.07
2018-10-19T15:22:54.578Z,32.70
2018-10-19T15:25:24.964Z,33.27
2018-10-19T15:27:55.096Z,35.80
2018-10-19T15:30:25.194Z,31.80
2018-10-19T15:32:55.335Z,35.50
2018-10-19T15:35:25.674Z,33.73
2018-10-19T15:37:55.660Z,36.20
2018-10-19T15:40:25.775Z,33.60
2018-10-19T15:42:55.720Z,30.47
2018-10-19T15:45:25.904Z,32.47
2018-10-19T15:47:55.933Z,32.07
2018-10-19T15:50:25.985Z,30.13
2018-10-19T15:52:56.064Z,30.03
2018-10-19T15:55:26.081Z,29.13
2018-10-19T15:57:56.091Z,30.57
2018-10-19T16:00:26.226Z,29.80
2018-10-19T16:02:56.082Z,28.63
2018-10-19T16:05:26.169Z,31.47
2018-10-19T16:07:56.122Z,31.70
2018-10-19T16:10:26.263Z,30.17
2018-10-19T16:12:56.440Z,31.37
2018-10-19T16:15:26.493Z,33.70
2018-10-19T16:17:56.637Z,33.23
2018-10-19T16:20:26.645Z,33.00
2018-10-19T16:22:56.707Z,34.70
2018-10-19T16:25:26.775Z,33.73
2018-10-19T16:27:56.840Z,36.83
2018-10-19T16:30:26.757Z,35.83
2018-10-19T16:32:56.986Z,33.50
2018-10-19T16:35:26.984Z,34.60
2018-10-19T16:37:57.072Z,34.37
2018-10-19T16:40:27.194Z,32.57
2018-10-19T16:42:57.110Z,32.87
2018-10-19T16:45:27.398Z,35.03
2018-10-19T16:47:57.603Z,37.33
2018-10-19T16:50:27.683Z,35.87
2018-10-19T16:53:13.430Z,36.03
2018-10-19T16:55:43.977Z,34.50
2018-10-19T16:58:14.167Z,34.60
2018-10-19T17:00:44.107Z,37.23
2018-10-19T17:03:14.202Z,40.37
2018-10-19T17:08:45.534Z,37.60
2018-10-19T17:11:15.721Z,39.20
2018-10-19T17:13:45.912Z,42.47
2018-10-19T17:16:15.923Z,44.30
2018-10-19T17:18:46.102Z,43.93
2018-10-19T17:24:21.304Z,44.70
2018-10-19T17:26:51.317Z,44.20
2018-10-19T17:29:25.015Z,42.40
2018-10-19T17:32:04.471Z,43.77
2018-10-19T17:34:34.748Z,44.60
2018-10-19T17:37:12.932Z,43.50
2018-10-19T17:39:42.908Z,45.13
2018-10-19T17:42:13.015Z,43.77
2018-10-19T17:44:43.013Z,46.57
2018-10-19T17:47:13.108Z,45.17
2018-10-19T17:49:43.179Z,45.73
2018-10-19T17:52:13.176Z,45.90
2018-10-19T17:54:43.147Z,46.67
2018-10-19T18:00:20.659Z,47.17
2018-10-19T18:02:50.804Z,45.00
2018-10-19T18:05:20.762Z,42.80
2018-10-19T18:07:50.995Z,48.43
2018-10-19T18:10:21.176Z,44.87
2018-10-19T18:12:51.161Z,43.27
2018-10-19T18:15:21.223Z,49.07
2018-10-19T18:17:51.268Z,45.97
2018-10-19T18:20:27.435Z,50.13
2018-10-19T18:22:57.539Z,44.17
2018-10-19T18:25:29.518Z,46.83
2018-10-19T18:27:59.706Z,50.63
2018-10-19T18:30:29.761Z,46.57
2018-10-19T18:32:59.761Z,50.43
2018-10-19T18:35:29.922Z,49.07
2018-10-19T18:37:59.911Z,47.30
2018-10-19T18:40:30.127Z,50.77
2018-10-19T18:43:00.243Z,52.47
2018-10-19T18:45:30.814Z,47.73
2018-10-19T18:48:00.973Z,48.50
2018-10-19T18:50:31.082Z,50.63
2018-10-19T18:53:01.236Z,52.77
2018-10-19T18:55:31.141Z,54.57
2018-10-19T19:00:56.417Z,54.73
2018-10-19T19:03:26.479Z,48.73
2018-10-19T19:05:56.792Z,50.87
2018-10-19T19:08:26.858Z,51.97
2018-10-19T19:10:57.017Z,54.03
2018-10-19T19:13:31.359Z,56.13
2018-10-19T19:16:01.806Z,52.47
2018-10-19T19:18:31.815Z,58.07
2018-10-19T19:21:01.949Z,52.40
2018-10-19T19:23:36.132Z,51.87
2018-10-19T19:26:11.709Z,53.63
2018-10-19T19:32:00.508Z,54.53
2018-10-19T19:34:30.450Z,55.63
2018-10-19T19:37:00.641Z,54.43
2018-10-19T19:39:30.731Z,52.27
2018-10-19T19:42:05.719Z,55.43
2018-10-19T19:44:36.893Z,59.43
2018-10-19T19:47:07.266Z,53.40
2018-10-19T19:49:38.948Z,57.13
2018-10-19T19:52:09.012Z,54.13
2018-10-19T19:54:39.173Z,57.37
2018-10-19T19:57:09.202Z,54.53
2018-10-19T19:59:39.141Z,55.10
2018-10-19T20:02:09.408Z,55.03
2018-10-19T20:04:39.392Z,56.03
2018-10-19T20:07:09.430Z,54.03
2018-10-19T20:09:39.422Z,51.00
2018-10-19T20:12:09.547Z,56.40
2018-10-19T20:14:39.580Z,54.67
2018-10-19T20:17:09.646Z,52.77
2018-10-19T20:19:39.627Z,54.67
2018-10-19T20:22:09.686Z,53.60
2018-10-19T20:24:39.679Z,53.23
2018-10-19T20:27:09.707Z,53.57
2018-10-19T20:29:39.769Z,58.40
2018-10-19T20:32:09.834Z,54.43
2018-10-19T20:34:39.837Z,57.40
2018-10-19T20:37:09.898Z,58.50
2018-10-19T20:39:39.952Z,51.50
2018-10-19T20:42:10.157Z,52.20
2018-10-19T20:44:40.120Z,51.43
2018-10-19T20:47:10.090Z,49.23
2018-10-19T20:49:40.005Z,52.20
2018-10-19T20:52:09.980Z,49.20
2018-10-19T20:54:39.970Z,51.07
2018-10-19T20:57:09.989Z,49.13
2018-10-19T20:59:39.986Z,52.73
2018-10-19T21:02:09.984Z,54.77
2018-10-19T21:04:39.994Z,49.90
2018-10-19T21:07:10.064Z,55.27
2018-10-19T21:09:40.116Z,54.67
2018-10-19T21:12:10.070Z,51.90
2018-10-19T21:14:40.173Z,52.40
2018-10-19T21:17:10.232Z,54.20
2018-10-19T21:19:40.248Z,55.77
2018-10-19T21:22:10.233Z,53.80
2018-10-19T21:24:40.270Z,56.73
2018-10-19T21:27:10.292Z,50.77
2018-10-19T21:29:40.285Z,56.03
2018-10-19T21:32:10.372Z,54.43
2018-10-19T21:34:40.183Z,54.20
2018-10-19T21:37:10.214Z,50.47
2018-10-19T21:39:40.336Z,50.80
2018-10-19T21:42:10.372Z,52.60
2018-10-19T21:44:40.289Z,52.73
2018-10-19T21:47:10.403Z,52.57
2018-10-19T21:49:40.439Z,50.33
2018-10-19T21:52:10.419Z,53.47
2018-10-19T21:54:40.400Z,55.80
2018-10-19T21:57:10.449Z,58.53
2018-10-19T21:59:40.501Z,56.90
2018-10-19T22:02:10.583Z,55.63
2018-10-19T22:04:40.642Z,52.03
2018-10-19T22:07:10.673Z,54.27
2018-10-19T22:09:40.713Z,53.90
2018-10-19T22:12:10.756Z,51.10
2018-10-19T22:14:40.810Z,54.87
2018-10-19T22:17:10.860Z,53.27
2018-10-19T22:19:40.906Z,53.93
2018-10-19T22:22:10.897Z,50.13
2018-10-19T22:24:40.984Z,51.00
2018-10-19T22:27:10.926Z,53.60
2018-10-19T22:29:41.029Z,56.67
2018-10-19T22:32:11.030Z,50.53
2018-10-19T22:34:41.036Z,49.10
2018-10-19T22:37:11.066Z,53.20
2018-10-19T22:39:40.931Z,51.60
2018-10-19T22:42:10.948Z,51.47
2018-10-19T22:44:40.975Z,55.40
2018-10-19T22:47:11.025Z,50.40
2018-10-19T22:49:41.010Z,55.70
2018-10-19T22:52:11.058Z,56.87
2018-10-19T22:54:41.034Z,66.60
2018-10-19T22:57:11.039Z,55.67
2018-10-19T22:59:41.037Z,54.87
2018-10-19T23:02:11.028Z,61.30
2018-10-19T23:04:41.074Z,59.57
2018-10-19T23:07:11.123Z,58.60
2018-10-19T23:09:41.214Z,59.47
2018-10-19T23:12:11.359Z,55.67
2018-10-19T23:14:41.406Z,64.53
2018-10-19T23:17:11.490Z,54.13
2018-10-19T23:19:41.459Z,56.70
2018-10-19T23:22:11.384Z,59.33
2018-10-19T23:24:41.434Z,58.80
2018-10-19T23:27:11.600Z,60.10
2018-10-19T23:29:41.722Z,58.83
2018-10-19T23:32:14.576Z,62.47
2018-10-19T23:34:44.591Z,61.57
2018-10-19T23:37:14.664Z,62.13
2018-10-19T23:39:44.552Z,59.07
2018-10-19T23:42:14.534Z,59.53
2018-10-19T23:44:44.474Z,67.93
2018-10-19T23:47:14.812Z,62.00
2018-10-19T23:49:44.745Z,58.23
2018-10-19T23:52:14.741Z,60.53
2018-10-19T23:54:44.741Z,68.50
2018-10-19T23:57:14.649Z,66.13
2018-10-19T23:59:44.643Z,63.17
